Time;durP1;ratioP1;P1;durP2;ratioP2;P2;SDS_P1;SDS_P2;PMS_P1;PMS_P2;Temp;Humidity;BMP_temperature;BMP_pressure;BME280_temperature;BME280_humidity;BME280_pressure;Samples;Min_cycle;Max_cycle;Signal;HPM_P1;HPM_P2
2022/09/05 00:02:21;;;;;;;4.97;4.17;;;16.60;99.90;;;;;;5102574;28;20216;-68
2022/09/05 00:04:56;;;;;;;5.75;4.00;;;16.60;99.90;;;;;;5113082;28;20197;-68
2022/09/05 00:07:29;;;;;;;4.20;3.80;;;16.70;99.90;;;;;;5113397;28;20554;-68
2022/09/05 00:10:06;;;;;;;4.95;4.00;;;16.70;99.90;;;;;;5117849;27;20212;-68
2022/09/05 00:12:36;;;;;;;5.78;3.70;;;16.90;99.90;;;;;;5113277;27;20216;-68
2022/09/05 00:15:17;;;;;;;4.10;3.70;;;16.90;99.90;;;;;;5121373;27;20189;-68
2022/09/05 00:18:11;;;;;;;4.85;4.25;;;16.80;99.90;;;;;;5120059;27;20643;-68
2022/09/05 00:20:47;;;;;;;4.57;3.58;;;16.80;99.90;;;;;;5103909;27;20556;-68
2022/09/05 00:23:20;;;;;;;4.18;3.67;;;16.90;99.90;;;;;;5105680;27;20209;-68
2022/09/05 00:25:59;;;;;;;5.43;3.60;;;17.00;99.90;;;;;;5108010;27;20205;-68
2022/09/05 00:28:38;;;;;;;4.53;4.13;;;16.90;99.90;;;;;;5101211;27;20542;-68
2022/09/05 00:31:18;;;;;;;6.32;3.67;;;17.00;99.90;;;;;;5111699;27;20216;-68
2022/09/05 00:33:56;;;;;;;5.00;3.92;;;17.00;99.90;;;;;;5111484;27;20208;-69
2022/09/05 00:36:34;;;;;;;5.53;4.30;;;17.00;99.90;;;;;;5112991;27;20209;-68
2022/09/05 00:39:04;;;;;;;4.13;3.72;;;17.00;99.90;;;;;;5110856;27;20653;-70
2022/09/05 00:41:32;;;;;;;3.97;3.63;;;17.00;99.90;;;;;;5107115;27;20539;-68
2022/09/05 00:44:02;;;;;;;5.78;4.07;;;17.00;99.90;;;;;;5114267;27;20208;-68
2022/09/05 00:46:32;;;;;;;4.70;4.00;;;16.90;99.90;;;;;;5111110;27;20226;-68
2022/09/05 00:49:13;;;;;;;4.25;3.85;;;16.80;99.90;;;;;;5109960;28;20624;-68
2022/09/05 00:51:46;;;;;;;4.57;4.07;;;16.70;99.90;;;;;;5106797;27;20217;-68
2022/09/05 00:54:24;;;;;;;5.30;4.15;;;16.70;99.90;;;;;;5106637;27;20205;-68
2022/09/05 00:57:02;;;;;;;4.57;4.07;;;16.70;99.90;;;;;;5101698;27;20201;-68
2022/09/05 01:00:02;;;;;;;5.45;4.05;;;16.60;99.90;;;;;;5116032;27;20197;-68
2022/09/05 01:02:45;;;;;;;5.95;4.40;;;16.70;99.90;;;;;;5104637;27;20609;-68
2022/09/05 01:05:26;;;;;;;4.72;4.30;;;16.60;99.90;;;;;;5111554;28;20198;-68
2022/09/05 01:08:13;;;;;;;6.88;4.20;;;16.50;99.90;;;;;;5112791;27;20200;-68
2022/09/05 01:10:47;;;;;;;6.43;4.40;;;16.30;99.90;;;;;;5112284;27;20684;-68
2022/09/05 01:13:22;;;;;;;4.88;4.38;;;16.40;99.90;;;;;;5109795;27;20204;-68
2022/09/05 01:15:59;;;;;;;5.22;4.40;;;16.10;99.90;;;;;;5111340;27;20193;-68
2022/09/05 01:18:42;;;;;;;6.30;4.57;;;15.90;99.90;;;;;;5110916;27;20206;-68
2022/09/05 01:21:36;;;;;;;4.38;3.95;;;15.70;99.90;;;;;;5107073;27;20200;-68
2022/09/05 01:24:28;;;;;;;6.68;4.22;;;15.70;99.90;;;;;;5065732;27;20197;-68
2022/09/05 01:27:46;;;;;;;4.78;4.38;;;15.80;99.90;;;;;;5107050;27;20201;-68
2022/09/05 01:30:19;;;;;;;5.95;4.50;;;15.80;99.90;;;;;;5045094;28;20230;-68
2022/09/05 01:32:55;;;;;;;7.30;4.65;;;15.50;99.90;;;;;;5041344;28;20219;-68
2022/09/05 01:35:54;;;;;;;7.82;4.57;;;15.40;99.90;;;;;;5080832;28;20658;-68
2022/09/05 01:38:29;;;;;;;7.88;4.47;;;15.50;99.90;;;;;;5082004;28;20596;-68
2022/09/05 01:41:10;;;;;;;6.13;4.45;;;15.80;99.90;;;;;;5107368;28;20200;-68
2022/09/05 01:44:12;;;;;;;6.18;4.25;;;15.90;99.90;;;;;;5108485;27;20212;-68
2022/09/05 01:46:50;;;;;;;5.53;4.00;;;16.10;99.90;;;;;;5107652;27;20211;-68
2022/09/05 01:49:28;;;;;;;5.88;4.63;;;16.00;99.90;;;;;;5104566;27;20258;-68
2022/09/05 01:52:22;;;;;;;5.57;4.10;;;15.80;99.90;;;;;;5101114;27;20225;-68
2022/09/05 01:55:05;;;;;;;6.63;4.55;;;15.70;99.90;;;;;;5105538;27;20204;-68
2022/09/05 01:57:43;;;;;;;5.95;4.75;;;15.80;99.90;;;;;;5106008;27;20551;-68
2022/09/05 02:00:14;;;;;;;5.72;4.68;;;15.80;99.90;;;;;;5112769;28;20192;-68
2022/09/05 02:02:53;;;;;;;5.00;4.15;;;15.90;99.90;;;;;;5105039;27;20197;-68
2022/09/05 02:05:33;;;;;;;7.20;4.68;;;15.80;99.90;;;;;;5107067;27;20204;-68
2022/09/05 02:08:19;;;;;;;7.13;4.38;;;15.70;99.90;;;;;;5108381;27;20536;-68
2022/09/05 02:11:01;;;;;;;6.47;4.25;;;15.80;99.90;;;;;;5108353;27;20209;-68
2022/09/05 02:13:45;;;;;;;6.15;4.20;;;15.70;99.90;;;;;;5103899;28;20193;-68
2022/09/05 02:16:21;;;;;;;7.43;4.70;;;15.70;99.90;;;;;;5104638;28;20566;-68
2022/09/05 02:18:54;;;;;;;7.07;4.07;;;15.80;99.90;;;;;;5106033;27;20188;-68
2022/09/05 02:21:36;;;;;;;5.65;4.28;;;15.90;99.90;;;;;;5106669;27;20197;-68
2022/09/05 02:24:12;;;;;;;5.65;4.30;;;16.00;99.90;;;;;;5113202;27;20287;-68
2022/09/05 02:26:47;;;;;;;7.35;4.63;;;15.90;99.90;;;;;;5104274;28;20238;-68
2022/09/05 02:29:20;;;;;;;5.30;4.18;;;15.50;99.90;;;;;;5116059;27;20201;-68
2022/09/05 02:31:50;;;;;;;6.07;4.40;;;15.30;99.90;;;;;;5103658;27;20706;-68
2022/09/05 02:34:25;;;;;;;4.70;4.30;;;15.10;99.90;;;;;;5111706;27;20200;-68
2022/09/05 02:37:00;;;;;;;5.47;4.70;;;15.10;99.90;;;;;;5113293;27;20220;-68
2022/09/05 02:39:36;;;;;;;4.95;4.20;;;15.10;99.90;;;;;;5130614;27;20214;-68
2022/09/05 02:42:12;;;;;;;5.10;4.03;;;15.10;99.90;;;;;;5104071;27;20204;-68
2022/09/05 02:44:51;;;;;;;5.07;4.57;;;15.10;99.90;;;;;;5103133;28;20560;-68
2022/09/05 02:47:22;;;;;;;7.45;4.45;;;15.00;99.90;;;;;;5090364;28;20193;-68
2022/09/05 02:50:06;;;;;;;8.10;4.70;;;15.10;99.90;;;;;;5103307;28;20279;-68
2022/09/05 02:52:37;;;;;;;4.82;4.43;;;15.30;99.90;;;;;;5109963;28;20217;-68
2022/09/05 02:55:11;;;;;;;5.60;4.88;;;15.30;99.90;;;;;;5109442;28;20204;-68
2022/09/05 02:57:46;;;;;;;5.00;4.38;;;15.30;99.90;;;;;;5104436;28;20201;-68
2022/09/05 03:00:17;;;;;;;6.22;4.57;;;15.20;99.90;;;;;;5113717;28;20671;-68
2022/09/05 03:03:06;;;;;;;10.02;4.63;;;15.20;99.90;;;;;;5110617;28;20212;-68
2022/09/05 03:05:41;;;;;;;6.45;4.82;;;15.10;99.90;;;;;;5109220;28;20198;-68
2022/09/05 03:08:18;;;;;;;5.47;4.57;;;15.00;99.90;;;;;;5115162;28;20204;-68
2022/09/05 03:11:12;;;;;;;5.22;4.47;;;15.00;99.90;;;;;;5110210;28;20690;-68
2022/09/05 03:14:10;;;;;;;5.07;4.55;;;15.20;99.90;;;;;;5102977;28;20197;-68
2022/09/05 03:17:09;;;;;;;5.30;4.72;;;15.20;99.90;;;;;;5097513;28;20201;-68
2022/09/05 03:20:00;;;;;;;5.45;4.57;;;15.20;99.90;;;;;;5098925;28;20228;-68
2022/09/05 03:23:04;;;;;;;5.45;4.60;;;15.20;99.90;;;;;;5105616;28;20201;-68
2022/09/05 03:26:10;;;;;;;6.15;4.70;;;15.20;99.90;;;;;;5082479;28;20204;-68
2022/09/05 03:29:18;;;;;;;7.10;4.63;;;15.10;99.90;;;;;;5108838;28;20205;-68
2022/09/05 03:32:04;;;;;;;6.70;4.20;;;15.00;99.90;;;;;;5103381;28;20220;-68
2022/09/05 03:35:34;;;;;;;7.85;5.10;;;14.90;99.90;;;;;;5111279;28;20215;-68
2022/09/05 03:38:21;;;;;;;7.10;4.97;;;14.80;99.90;;;;;;5012100;28;20253;-68
2022/09/05 03:41:07;;;;;;;9.90;4.47;;;14.70;99.90;;;;;;5024941;28;20203;-68
2022/09/05 03:44:01;;;;;;;5.87;4.60;;;15.00;99.90;;;;;;5099786;28;20201;-68
2022/09/05 03:46:59;;;;;;;5.45;4.80;;;15.00;99.90;;;;;;5101326;28;20232;-68
2022/09/05 03:49:57;;;;;;;7.57;5.10;;;15.10;99.90;;;;;;5105893;28;20197;-68
2022/09/05 03:52:35;;;;;;;5.47;4.85;;;15.10;99.90;;;;;;5104976;28;20213;-68
2022/09/05 03:55:22;;;;;;;19.35;5.10;;;15.10;99.90;;;;;;5112100;28;20200;-66
2022/09/05 03:58:10;;;;;;;8.68;4.75;;;15.10;99.90;;;;;;5098402;28;20208;-67
2022/09/05 04:00:37;;;;;;;10.55;5.10;;;15.20;99.90;;;;;;5107366;28;20552;-67
2022/09/05 04:03:14;;;;;;;7.85;5.05;;;15.20;99.90;;;;;;5105444;28;20193;-66
2022/09/05 04:05:46;;;;;;;6.35;4.40;;;15.20;99.90;;;;;;5104676;28;20209;-67
2022/09/05 04:08:22;;;;;;;7.78;5.07;;;15.10;99.90;;;;;;5107796;28;20197;-67
2022/09/05 04:10:56;;;;;;;7.30;4.65;;;15.00;99.90;;;;;;5117312;27;20209;-67
2022/09/05 04:13:26;;;;;;;6.93;5.28;;;14.90;99.90;;;;;;5115722;27;20709;-67
2022/09/05 04:16:09;;;;;;;7.50;4.68;;;14.90;99.90;;;;;;5108054;27;20201;-67
2022/09/05 04:18:40;;;;;;;7.68;5.20;;;14.90;99.90;;;;;;5113085;27;20206;-66
2022/09/05 04:21:13;;;;;;;7.15;4.90;;;14.90;99.90;;;;;;5104134;27;20655;-66
2022/09/05 04:24:00;;;;;;;5.75;4.63;;;14.90;99.90;;;;;;5099291;28;20202;-66
2022/09/05 04:26:51;;;;;;;6.28;5.00;;;14.90;99.90;;;;;;5103457;27;20288;-67
2022/09/05 04:29:27;;;;;;;5.50;5.00;;;14.90;99.90;;;;;;5066642;28;20682;-67
2022/09/05 04:32:01;;;;;;;7.35;4.53;;;14.90;99.90;;;;;;5112933;27;20228;-67
2022/09/05 04:34:58;;;;;;;7.70;4.93;;;15.00;99.90;;;;;;5112062;27;20561;-67
2022/09/05 04:37:41;;;;;;;5.20;4.55;;;15.00;99.90;;;;;;5102726;27;20213;-67
2022/09/05 04:40:30;;;;;;;5.57;4.40;;;14.90;99.90;;;;;;5105048;27;20683;-66
2022/09/05 04:43:02;;;;;;;6.00;4.45;;;15.00;99.90;;;;;;5106241;27;20572;-67
2022/09/05 04:45:36;;;;;;;6.38;4.57;;;15.00;99.90;;;;;;5111465;27;20657;-67
2022/09/05 04:48:06;;;;;;;5.65;4.55;;;15.10;99.90;;;;;;5115697;27;20200;-67
2022/09/05 04:50:42;;;;;;;7.55;5.05;;;15.10;99.90;;;;;;5112506;28;20620;-67
2022/09/05 04:53:19;;;;;;;7.45;5.18;;;15.00;99.90;;;;;;5108569;27;20216;-67
2022/09/05 04:55:50;;;;;;;12.45;4.65;;;15.10;99.90;;;;;;5106920;28;20212;-66
2022/09/05 04:58:26;;;;;;;11.35;6.05;;;15.10;99.90;;;;;;5109834;27;20204;-66
2022/09/05 05:00:58;;;;;;;8.75;4.93;;;15.10;99.90;;;;;;5116518;27;20645;-67
2022/09/05 05:03:27;;;;;;;12.20;5.85;;;15.20;99.90;;;;;;5112319;27;20189;-67
2022/09/05 05:05:59;;;;;;;7.47;5.10;;;15.20;99.90;;;;;;5112442;28;20212;-66
2022/09/05 05:08:30;;;;;;;9.18;5.03;;;15.20;99.90;;;;;;5112534;28;20204;-67
2022/09/05 05:11:00;;;;;;;6.75;5.00;;;15.20;99.90;;;;;;5114269;27;20661;-67
2022/09/05 05:13:33;;;;;;;8.70;4.60;;;15.20;99.90;;;;;;5110280;27;20217;-67
2022/09/05 05:16:05;;;;;;;5.28;4.78;;;15.20;99.90;;;;;;5114615;27;20203;-67
2022/09/05 05:18:35;;;;;;;7.78;4.53;;;15.30;99.90;;;;;;5109535;27;20197;-67
2022/09/05 05:21:05;;;;;;;7.38;5.63;;;15.30;99.90;;;;;;5101756;27;20205;-67
2022/09/05 05:23:36;;;;;;;7.90;5.07;;;15.30;99.90;;;;;;5112544;27;20587;-67
2022/09/05 05:26:07;;;;;;;6.97;4.88;;;15.30;99.90;;;;;;5111035;28;20196;-67
2022/09/05 05:28:48;;;;;;;8.05;4.93;;;15.30;99.90;;;;;;5113744;28;20205;-67
2022/09/05 05:31:18;;;;;;;9.32;5.55;;;15.40;99.90;;;;;;5105247;27;20216;-67
2022/09/05 05:33:48;;;;;;;9.60;5.30;;;15.40;99.90;;;;;;5118333;27;20220;-67
2022/09/05 05:36:20;;;;;;;11.57;4.60;;;15.40;99.90;;;;;;5112891;28;20436;-67
2022/09/05 05:38:53;;;;;;;8.88;5.10;;;15.40;99.90;;;;;;5117794;27;20205;-67
2022/09/05 05:41:24;;;;;;;7.30;5.65;;;15.50;99.90;;;;;;5120807;27;20238;-67
2022/09/05 05:43:53;;;;;;;7.45;5.20;;;15.50;99.90;;;;;;5115883;27;20193;-66
2022/09/05 05:46:36;;;;;;;11.57;5.63;;;15.60;99.90;;;;;;5117153;27;20200;-67
2022/09/05 05:49:45;;;;;;;8.57;5.55;;;15.70;99.90;;;;;;5113725;27;20200;-67
2022/09/05 05:52:36;;;;;;;9.77;5.43;;;15.70;99.90;;;;;;5093587;27;20196;-67
2022/09/05 05:55:12;;;;;;;6.30;5.40;;;15.80;99.90;;;;;;5107908;28;20205;-67
2022/09/05 05:58:04;;;;;;;6.43;5.60;;;15.90;99.90;;;;;;5111458;27;20204;-67
2022/09/05 06:00:52;;;;;;;11.23;6.05;;;16.00;99.90;;;;;;5100553;28;20674;-67
2022/09/05 06:03:54;;;;;;;8.25;5.70;;;16.30;99.90;;;;;;5111632;27;20208;-66
2022/09/05 06:06:28;;;;;;;8.27;5.70;;;16.50;99.90;;;;;;5109709;27;20668;-66
2022/09/05 06:09:31;;;;;;;6.75;5.20;;;16.50;99.90;;;;;;5100898;27;20204;-67
2022/09/05 06:12:27;;;;;;;9.98;5.53;;;16.60;99.90;;;;;;5104250;28;20715;-66
2022/09/05 06:15:25;;;;;;;9.10;5.63;;;16.70;99.90;;;;;;5106346;28;20564;-66
2022/09/05 06:18:23;;;;;;;9.85;5.63;;;16.80;99.90;;;;;;5113605;27;20211;-67
2022/09/05 06:21:28;;;;;;;10.05;6.13;;;17.00;99.90;;;;;;5061910;27;20213;-66
2022/09/05 06:24:46;;;;;;;9.02;5.53;;;17.10;99.90;;;;;;5088068;27;20196;-67
2022/09/05 06:27:41;;;;;;;9.73;4.95;;;17.20;99.90;;;;;;5104512;28;20212;-66
2022/09/05 06:30:13;;;;;;;8.02;5.72;;;17.40;99.90;;;;;;5110743;27;20193;-67
2022/09/05 06:32:59;;;;;;;10.50;5.93;;;17.50;99.90;;;;;;5105982;28;20220;-66
2022/09/05 06:35:49;;;;;;;7.28;5.18;;;17.60;99.90;;;;;;5106685;28;20635;-67
2022/09/05 06:38:30;;;;;;;8.63;5.18;;;17.70;99.90;;;;;;5090894;28;20656;-67
2022/09/05 06:41:18;;;;;;;8.35;5.55;;;17.70;99.90;;;;;;5126071;27;20206;-67
2022/09/05 06:44:24;;;;;;;8.75;6.15;;;17.70;99.90;;;;;;5109681;27;20208;-67
2022/09/05 06:46:52;;;;;;;6.40;5.35;;;17.90;99.90;;;;;;5097425;28;20193;-67
2022/09/05 06:49:24;;;;;;;7.43;5.70;;;18.10;99.90;;;;;;5114003;28;20200;-67
2022/09/05 06:52:28;;;;;;;7.68;5.80;;;18.20;99.90;;;;;;5107779;28;20224;-67
2022/09/05 06:55:42;;;;;;;6.75;5.82;;;18.30;99.90;;;;;;5106644;28;20552;-67
2022/09/05 06:58:32;;;;;;;6.80;5.30;;;18.50;99.90;;;;;;5111493;28;20208;-67
2022/09/05 07:01:01;;;;;;;5.85;5.13;;;18.70;99.90;;;;;;5109529;28;20204;-67
2022/09/05 07:03:45;;;;;;;6.10;5.35;;;18.50;99.90;;;;;;5110646;28;20197;-67
2022/09/05 07:06:19;;;;;;;8.30;5.70;;;18.60;99.90;;;;;;5104004;28;20698;-67
2022/09/05 07:08:52;;;;;;;7.47;5.78;;;18.50;99.90;;;;;;5111052;28;20203;-67
2022/09/05 07:11:23;;;;;;;9.02;5.60;;;18.50;99.90;;;;;;5112589;28;20211;-67
2022/09/05 07:13:57;;;;;;;6.32;5.65;;;18.60;99.90;;;;;;5113260;28;20228;-67
2022/09/05 07:16:37;;;;;;;7.53;5.35;;;18.60;99.90;;;;;;5092652;28;20193;-68
2022/09/05 07:19:14;;;;;;;8.50;5.97;;;18.60;99.90;;;;;;5124994;28;20203;-68
2022/09/05 07:21:48;;;;;;;7.45;5.88;;;18.80;99.90;;;;;;5112379;28;20448;-68
2022/09/05 07:24:21;;;;;;;7.90;5.70;;;19.00;99.90;;;;;;5112137;28;20203;-68
2022/09/05 07:26:49;;;;;;;6.95;6.05;;;19.10;99.90;;;;;;5112657;28;20568;-68
2022/09/05 07:29:20;;;;;;;6.65;5.63;;;19.30;99.90;;;;;;5112671;28;20198;-68
2022/09/05 07:31:51;;;;;;;8.98;6.35;;;19.40;99.90;;;;;;5107213;28;20600;-68
2022/09/05 07:34:22;;;;;;;9.85;5.50;;;19.40;99.90;;;;;;5108369;28;20216;-68
2022/09/05 07:36:53;;;;;;;8.88;5.57;;;19.50;99.90;;;;;;5105780;28;21632;-68
2022/09/05 07:39:26;;;;;;;8.65;5.85;;;19.60;99.90;;;;;;5109088;28;20308;-68
2022/09/05 07:41:56;;;;;;;7.28;6.22;;;19.70;99.90;;;;;;5105841;28;20207;-69
2022/09/05 07:44:26;;;;;;;7.85;5.75;;;19.80;99.90;;;;;;5103901;27;20197;-69
2022/09/05 07:46:58;;;;;;;9.63;5.88;;;19.90;99.90;;;;;;5113389;27;20288;-69
2022/09/05 07:49:28;;;;;;;6.55;5.70;;;19.90;99.90;;;;;;5113743;27;20203;-68
2022/09/05 07:51:57;;;;;;;8.15;6.00;;;19.90;99.90;;;;;;5109486;28;20201;-68
2022/09/05 07:54:28;;;;;;;8.25;6.22;;;20.20;99.90;;;;;;5116278;27;20228;-68
2022/09/05 07:57:02;;;;;;;7.47;6.00;;;20.30;99.90;;;;;;5109397;28;20214;-68
2022/09/05 07:59:33;;;;;;;11.15;5.80;;;20.40;99.90;;;;;;5118266;27;20205;-68
2022/09/05 08:02:01;;;;;;;9.77;5.65;;;20.40;99.90;;;;;;5113817;27;20606;-69
2022/09/05 08:04:30;;;;;;;7.15;5.85;;;20.40;99.90;;;;;;5106983;27;20204;-69
2022/09/05 08:07:00;;;;;;;9.27;6.03;;;20.40;99.90;;;;;;5112618;27;20669;-69
2022/09/05 08:09:32;;;;;;;7.35;6.13;;;20.60;99.90;;;;;;5117010;27;20205;-68
2022/09/05 08:12:02;;;;;;;8.05;5.97;;;20.70;99.90;;;;;;5110625;27;20192;-68
2022/09/05 08:14:42;;;;;;;9.07;6.43;;;20.80;99.90;;;;;;5111629;27;20613;-69
2022/09/05 08:17:15;;;;;;;7.18;5.85;;;20.80;99.90;;;;;;5116934;27;20192;-69
2022/09/05 08:19:55;;;;;;;7.25;5.82;;;20.70;99.90;;;;;;5112559;27;20197;-69
2022/09/05 08:22:24;;;;;;;7.05;5.50;;;20.90;99.90;;;;;;5109066;27;20591;-69
2022/09/05 08:25:02;;;;;;;7.03;5.82;;;21.00;99.90;;;;;;5110036;27;20841;-69
2022/09/05 08:27:34;;;;;;;7.70;6.22;;;20.90;99.90;;;;;;5105225;27;20197;-69
2022/09/05 08:30:06;;;;;;;6.45;5.82;;;21.00;99.90;;;;;;5107338;27;20201;-69
2022/09/05 08:32:40;;;;;;;9.65;5.97;;;21.20;99.90;;;;;;5112384;28;20445;-69
2022/09/05 08:35:14;;;;;;;7.10;6.20;;;21.20;99.90;;;;;;5112492;27;20216;-69
2022/09/05 08:37:43;;;;;;;8.05;6.40;;;21.30;99.90;;;;;;5099439;28;20211;-68
2022/09/05 08:40:24;;;;;;;11.00;6.07;;;21.50;99.90;;;;;;5115838;27;20212;-69
2022/09/05 08:42:58;;;;;;;9.65;6.28;;;21.70;99.90;;;;;;5108957;28;20208;-69
2022/09/05 08:45:34;;;;;;;6.15;5.22;;;21.70;99.90;;;;;;5114150;28;20658;-69
2022/09/05 08:48:17;;;;;;;7.75;6.53;;;21.60;99.90;;;;;;5111520;27;20203;-69
2022/09/05 08:51:07;;;;;;;8.27;6.00;;;21.40;99.90;;;;;;5111909;28;20197;-69
2022/09/05 08:53:56;;;;;;;7.60;6.05;;;21.50;99.90;;;;;;5110675;27;20238;-69
2022/09/05 08:56:31;;;;;;;9.80;5.57;;;21.60;99.90;;;;;;5114813;27;20208;-69
2022/09/05 08:59:05;;;;;;;9.30;5.85;;;21.60;99.90;;;;;;5112751;27;20197;-69
2022/09/05 09:01:34;;;;;;;7.95;5.32;;;21.70;99.90;;;;;;5089420;27;20201;-69
2022/09/05 09:04:11;;;;;;;8.10;5.35;;;22.10;99.90;;;;;;5118098;27;20192;-69
2022/09/05 09:07:07;;;;;;;9.82;6.28;;;22.20;99.90;;;;;;5110152;27;20682;-69
2022/09/05 09:09:41;;;;;;;8.70;5.80;;;21.90;99.90;;;;;;5110661;27;20197;-69
2022/09/05 09:12:19;;;;;;;8.43;6.32;;;21.80;99.90;;;;;;5108436;27;20642;-69
2022/09/05 09:14:54;;;;;;;8.23;5.95;;;21.90;99.90;;;;;;5108338;27;20208;-69
2022/09/05 09:17:31;;;;;;;8.38;6.40;;;22.00;99.90;;;;;;5109493;28;20288;-69
2022/09/05 09:20:20;;;;;;;7.25;5.72;;;22.40;99.90;;;;;;5100823;28;20204;-69
2022/09/05 09:22:58;;;;;;;6.35;5.75;;;22.70;99.90;;;;;;5113937;27;20223;-69
2022/09/05 09:25:29;;;;;;;11.02;5.55;;;22.60;98.30;;;;;;5114317;27;20566;-69
2022/09/05 09:28:27;;;;;;;8.30;6.60;;;23.10;99.90;;;;;;5107911;27;20563;-69
2022/09/05 09:30:57;;;;;;;9.80;6.28;;;23.30;89.70;;;;;;5110068;27;20200;-69
2022/09/05 09:33:36;;;;;;;6.88;5.63;;;23.80;90.00;;;;;;5101509;28;20197;-69
2022/09/05 09:36:13;;;;;;;8.25;5.80;;;23.70;76.00;;;;;;5102805;27;20207;-69
2022/09/05 09:38:54;;;;;;;6.35;5.25;;;24.10;69.40;;;;;;5102979;27;20197;-69
2022/09/05 09:41:45;;;;;;;8.52;6.18;;;23.60;72.30;;;;;;5108437;28;20208;-69
2022/09/05 09:44:51;;;;;;;7.32;6.22;;;23.30;83.90;;;;;;5110744;28;20185;-69
2022/09/05 09:47:30;;;;;;;7.85;6.35;;;22.90;93.10;;;;;;5111418;27;20295;-69
2022/09/05 09:50:17;;;;;;;8.80;6.25;;;22.90;93.20;;;;;;5103517;28;20205;-69
2022/09/05 09:53:14;;;;;;;6.68;5.93;;;22.80;98.80;;;;;;5103190;28;20208;-69
2022/09/05 09:56:08;;;;;;;11.10;6.22;;;22.90;97.80;;;;;;5106970;27;20219;-69
2022/09/05 09:59:02;;;;;;;9.15;6.35;;;23.00;97.30;;;;;;5102492;28;20646;-69
2022/09/05 10:01:38;;;;;;;7.80;7.00;;;23.00;92.80;;;;;;5101474;28;20208;-69
2022/09/05 10:04:22;;;;;;;7.90;6.07;;;23.00;92.50;;;;;;5105565;27;20189;-69
2022/09/05 10:07:20;;;;;;;10.18;7.18;;;23.10;96.30;;;;;;5112264;27;20197;-69
2022/09/05 10:10:11;;;;;;;9.73;5.75;;;23.40;93.80;;;;;;5109587;27;20197;-69
2022/09/05 10:13:09;;;;;;;6.68;5.50;;;23.70;88.90;;;;;;5108204;28;20297;-69
2022/09/05 10:15:52;;;;;;;8.60;5.97;;;23.80;83.30;;;;;;5107022;28;20690;-69
2022/09/05 10:18:35;;;;;;;6.97;6.30;;;23.70;88.10;;;;;;5104085;28;20660;-69
2022/09/05 10:21:23;;;;;;;9.10;6.35;;;23.80;83.90;;;;;;5107589;28;20204;-69
2022/09/05 10:24:22;;;;;;;8.75;5.75;;;23.60;79.90;;;;;;5101578;28;20198;-69
2022/09/05 10:27:16;;;;;;;7.30;5.90;;;23.80;83.50;;;;;;5073528;28;20627;-68
2022/09/05 10:29:47;;;;;;;5.80;5.30;;;23.90;82.00;;;;;;5107368;28;20213;-68
2022/09/05 10:32:22;;;;;;;8.88;5.93;;;24.00;90.00;;;;;;5101627;28;20655;-68
2022/09/05 10:34:57;;;;;;;9.23;5.55;;;24.10;81.00;;;;;;5105942;28;20703;-68
2022/09/05 10:37:35;;;;;;;8.93;6.05;;;24.30;66.40;;;;;;5108520;27;20281;-68
2022/09/05 10:40:08;;;;;;;6.57;5.80;;;24.10;83.60;;;;;;5111391;28;20204;-68
2022/09/05 10:42:38;;;;;;;7.68;5.85;;;24.00;67.60;;;;;;5106191;28;20655;-67
2022/09/05 10:45:14;;;;;;;6.43;5.70;;;23.90;74.90;;;;;;5110634;28;20288;-68
2022/09/05 10:47:47;;;;;;;7.85;6.00;;;24.10;76.70;;;;;;5106915;28;20201;-68
2022/09/05 10:50:26;;;;;;;6.57;5.57;;;24.00;69.30;;;;;;5109417;28;20205;-67
2022/09/05 10:53:09;;;;;;;6.72;5.90;;;24.30;71.10;;;;;;5108751;28;20651;-68
2022/09/05 10:55:50;;;;;;;7.55;5.53;;;24.30;66.30;;;;;;5109034;28;20219;-68
2022/09/05 10:58:29;;;;;;;8.57;5.60;;;24.30;56.60;;;;;;5108754;28;20197;-68
2022/09/05 11:01:02;;;;;;;8.25;5.90;;;24.30;59.60;;;;;;5106562;28;20200;-67
2022/09/05 11:03:36;;;;;;;6.38;5.75;;;24.30;54.20;;;;;;5110747;28;20209;-68
2022/09/05 11:06:09;;;;;;;6.82;5.82;;;24.40;52.50;;;;;;5108476;28;20197;-68
2022/09/05 11:08:45;;;;;;;7.57;5.78;;;24.60;48.30;;;;;;5110748;28;20216;-68
2022/09/05 11:11:17;;;;;;;7.35;5.70;;;24.70;47.40;;;;;;5107406;28;20200;-68
2022/09/05 11:13:46;;;;;;;6.22;5.63;;;24.90;46.80;;;;;;5110082;28;20637;-68
2022/09/05 11:16:29;;;;;;;7.97;5.80;;;25.10;47.20;;;;;;5104850;28;20200;-68
2022/09/05 11:19:01;;;;;;;8.05;6.10;;;25.30;44.60;;;;;;5090948;28;20714;-68
2022/09/05 11:21:54;;;;;;;8.98;5.50;;;25.10;37.60;;;;;;5114811;28;20193;-68
2022/09/05 11:24:33;;;;;;;7.72;5.03;;;25.50;27.90;;;;;;5114345;28;20193;-68
2022/09/05 11:27:05;;;;;;;5.30;4.80;;;25.90;28.40;;;;;;5108217;28;20570;-71
2022/09/05 11:29:36;;;;;;;8.70;5.55;;;25.90;24.70;;;;;;5108919;28;20201;-71
2022/09/05 11:32:28;;;;;;;7.85;5.18;;;26.10;19.60;;;;;;5111332;27;20544;-69
2022/09/05 11:35:10;;;;;;;7.75;5.30;;;26.40;22.40;;;;;;5110070;28;20219;-68
2022/09/05 11:38:02;;;;;;;6.82;4.78;;;26.50;15.30;;;;;;5109430;28;20655;-71
2022/09/05 11:40:52;;;;;;;5.68;4.68;;;26.60;16.30;;;;;;5110835;28;20197;-70
2022/09/05 11:44:00;;;;;;;7.32;4.88;;;26.70;14.90;;;;;;5109063;28;20636;-71
2022/09/05 11:46:31;;;;;;;5.50;5.00;;;26.50;14.60;;;;;;5117189;27;20197;-70
2022/09/05 11:49:37;;;;;;;7.90;5.05;;;26.70;16.60;;;;;;5119494;27;20200;-70
2022/09/05 11:52:44;;;;;;;6.82;5.35;;;26.80;13.00;;;;;;5080827;28;20232;-70
2022/09/05 11:55:31;;;;;;;6.70;4.78;;;26.90;11.90;;;;;;5103869;27;20577;-70
2022/09/05 11:58:39;;;;;;;8.88;5.65;;;27.10;9.40;;;;;;5094865;28;20252;-70
2022/09/05 12:01:10;;;;;;;7.53;5.10;;;26.90;10.10;;;;;;5108376;28;20215;-70
2022/09/05 12:03:51;;;;;;;6.88;5.10;;;27.10;10.00;;;;;;5112841;28;20201;-70
2022/09/05 12:07:06;;;;;;;5.80;5.25;;;27.30;8.00;;;;;;5101368;28;20274;-70
2022/09/05 12:09:46;;;;;;;6.05;4.75;;;27.50;6.30;;;;;;5109321;28;20204;-70
2022/09/05 12:12:25;;;;;;;7.63;4.80;;;27.30;7.20;;;;;;5091955;28;20197;-70
2022/09/05 12:15:16;;;;;;;6.53;5.20;;;27.40;6.70;;;;;;5109751;28;20229;-70
2022/09/05 12:17:52;;;;;;;8.30;4.85;;;27.50;2.60;;;;;;5109533;28;20219;-70
2022/09/05 12:20:27;;;;;;;5.03;4.53;;;27.30;6.60;;;;;;5088250;28;20216;-70
2022/09/05 12:22:59;;;;;;;8.02;4.63;;;27.00;4.80;;;;;;5084715;28;20209;-70
2022/09/05 12:25:36;;;;;;;5.60;4.80;;;27.30;4.90;;;;;;5102809;28;20189;-70
2022/09/05 12:28:06;;;;;;;9.38;5.63;;;27.60;3.30;;;;;;5109453;28;20227;-70
2022/09/05 12:30:38;;;;;;;8.45;5.22;;;27.40;2.90;;;;;;5105105;28;20201;-70
2022/09/05 12:33:21;;;;;;;8.82;5.07;;;27.40;2.30;;;;;;5111063;27;20208;-70
2022/09/05 12:35:54;;;;;;;8.02;5.00;;;27.50;1.70;;;;;;5088417;28;20300;-70
2022/09/05 12:38:34;;;;;;;7.82;5.07;;;27.70;2.80;;;;;;5091097;27;20204;-70
2022/09/05 12:41:07;;;;;;;6.97;4.60;;;28.00;1.00;;;;;;5111947;27;20197;-70
2022/09/05 12:43:36;;;;;;;5.10;4.60;;;27.90;1.00;;;;;;5090908;28;20197;-70
2022/09/05 12:46:12;;;;;;;6.85;4.75;;;27.90;1.00;;;;;;5113037;28;20585;-70
2022/09/05 12:48:43;;;;;;;6.40;5.28;;;27.80;1.00;;;;;;5109111;28;20201;-70
2022/09/05 12:51:16;;;;;;;5.93;5.07;;;27.90;1.00;;;;;;5112752;28;20223;-70
2022/09/05 12:53:45;;;;;;;8.43;4.72;;;27.80;1.00;;;;;;5113874;27;20219;-70
2022/09/05 12:56:20;;;;;;;6.25;5.07;;;27.80;1.00;;;;;;5105618;28;20214;-70
2022/09/05 12:58:51;;;;;;;7.60;4.68;;;28.00;1.00;;;;;;5112237;28;20192;-70
2022/09/05 13:01:27;;;;;;;5.57;4.80;;;27.70;1.00;;;;;;5108602;28;20622;-70
2022/09/05 13:04:00;;;;;;;8.52;4.88;;;27.70;1.00;;;;;;5109901;28;20554;-70
2022/09/05 13:06:31;;;;;;;6.65;4.72;;;27.90;1.00;;;;;;5111664;28;20206;-70
2022/09/05 13:09:03;;;;;;;5.00;4.60;;;27.80;1.00;;;;;;5112836;27;20208;-70
2022/09/05 13:11:36;;;;;;;6.07;4.65;;;27.80;1.00;;;;;;5107887;28;20287;-70
2022/09/05 13:14:12;;;;;;;6.00;4.55;;;28.10;1.00;;;;;;5106996;28;20197;-69
2022/09/05 13:16:46;;;;;;;9.95;4.65;;;27.90;1.00;;;;;;5095503;28;20394;-71
2022/09/05 13:19:27;;;;;;;5.28;4.50;;;27.60;1.00;;;;;;5114166;27;20252;-69
2022/09/05 13:21:56;;;;;;;5.60;4.53;;;27.80;1.00;;;;;;5094525;28;20255;-70
2022/09/05 13:24:29;;;;;;;6.60;4.82;;;28.10;1.00;;;;;;5109283;28;20325;-70
2022/09/05 13:27:07;;;;;;;4.60;4.07;;;27.80;1.00;;;;;;5116092;27;20253;-70
2022/09/05 13:29:51;;;;;;;6.10;4.57;;;27.90;1.00;;;;;;5112025;27;20201;-70
2022/09/05 13:32:23;;;;;;;5.75;4.75;;;28.20;1.00;;;;;;5109560;27;20726;-70
2022/09/05 13:34:54;;;;;;;5.15;4.28;;;27.90;1.00;;;;;;5112608;27;20225;-70
2022/09/05 13:37:29;;;;;;;5.90;4.00;;;28.10;1.00;;;;;;5113397;27;20228;-70
2022/09/05 13:39:59;;;;;;;6.97;4.68;;;28.20;1.00;;;;;;5119000;27;20554;-69
2022/09/05 13:42:30;;;;;;;5.40;4.57;;;28.10;1.00;;;;;;5113287;28;20193;-69
2022/09/05 13:44:59;;;;;;;5.38;4.55;;;28.00;1.00;;;;;;5118172;27;20201;-70
2022/09/05 13:47:58;;;;;;;5.13;4.30;;;28.00;1.00;;;;;;5112970;27;20202;-69
2022/09/05 13:50:29;;;;;;;5.38;4.72;;;28.00;1.00;;;;;;5100632;27;20229;-69
2022/09/05 13:53:01;;;;;;;5.22;4.72;;;28.10;1.00;;;;;;5109601;27;20214;-69
2022/09/05 13:55:52;;;;;;;4.93;4.40;;;28.10;1.00;;;;;;5108333;28;20213;-69